sensor_id;sensor_type;location;lat;lon;timestamp;P1;durP1;ratioP1;P2;durP2;ratioP2
36191;SDS011;22233;42.708;23.360;2023-03-14T00:00:57;9.95;;;4.80;;
36191;SDS011;22233;42.708;23.360;2023-03-14T00:03:23;5.85;;;3.60;;
36191;SDS011;22233;42.708;23.360;2023-03-14T00:05:48;6.05;;;3.65;;
36191;SDS011;22233;42.708;23.360;2023-03-14T00:08:14;7.35;;;4.18;;
36191;SDS011;22233;42.708;23.360;2023-03-14T00:10:39;5.60;;;3.90;;
36191;SDS011;22233;42.708;23.360;2023-03-14T00:13:05;5.70;;;3.30;;
36191;SDS011;22233;42.708;23.360;2023-03-14T00:15:32;5.85;;;3.80;;
36191;SDS011;22233;42.708;23.360;2023-03-14T00:18:00;6.22;;;3.50;;
36191;SDS011;22233;42.708;23.360;2023-03-14T00:20:26;3.72;;;3.13;;
36191;SDS011;22233;42.708;23.360;2023-03-14T00:22:52;5.30;;;3.33;;
36191;SDS011;22233;42.708;23.360;2023-03-14T00:25:17;5.50;;;3.30;;
36191;SDS011;22233;42.708;23.360;2023-03-14T00:27:43;5.82;;;3.22;;
36191;SDS011;22233;42.708;23.360;2023-03-14T00:30:08;5.18;;;3.58;;
36191;SDS011;22233;42.708;23.360;2023-03-14T00:32:34;5.25;;;3.72;;
36191;SDS011;22233;42.708;23.360;2023-03-14T00:35:00;5.88;;;3.35;;
36191;SDS011;22233;42.708;23.360;2023-03-14T00:37:26;5.95;;;3.55;;
36191;SDS011;22233;42.708;23.360;2023-03-14T00:39:52;5.47;;;3.20;;
36191;SDS011;22233;42.708;23.360;2023-03-14T00:42:17;4.97;;;3.13;;
36191;SDS011;22233;42.708;23.360;2023-03-14T00:44:42;4.53;;;3.50;;
36191;SDS011;22233;42.708;23.360;2023-03-14T00:47:08;5.88;;;4.20;;
36191;SDS011;22233;42.708;23.360;2023-03-14T00:49:33;6.75;;;3.40;;
36191;SDS011;22233;42.708;23.360;2023-03-14T00:51:59;5.05;;;3.58;;
36191;SDS011;22233;42.708;23.360;2023-03-14T00:54:24;5.30;;;3.75;;
36191;SDS011;22233;42.708;23.360;2023-03-14T00:56:49;4.05;;;3.17;;
36191;SDS011;22233;42.708;23.360;2023-03-14T00:59:15;6.38;;;3.53;;
36191;SDS011;22233;42.708;23.360;2023-03-14T01:01:41;5.20;;;3.50;;
36191;SDS011;22233;42.708;23.360;2023-03-14T01:04:07;6.72;;;4.47;;
36191;SDS011;22233;42.708;23.360;2023-03-14T01:06:32;6.32;;;4.03;;
36191;SDS011;22233;42.708;23.360;2023-03-14T01:08:58;5.72;;;3.60;;
36191;SDS011;22233;42.708;23.360;2023-03-14T01:11:26;6.97;;;3.50;;
36191;SDS011;22233;42.708;23.360;2023-03-14T01:13:53;8.68;;;3.78;;
36191;SDS011;22233;42.708;23.360;2023-03-14T01:16:19;6.22;;;3.72;;
36191;SDS011;22233;42.708;23.360;2023-03-14T01:18:46;7.47;;;4.45;;
36191;SDS011;22233;42.708;23.360;2023-03-14T01:23:48;6.32;;;3.75;;
36191;SDS011;22233;42.708;23.360;2023-03-14T01:26:16;5.88;;;3.65;;
36191;SDS011;22233;42.708;23.360;2023-03-14T01:28:46;4.90;;;3.47;;
36191;SDS011;22233;42.708;23.360;2023-03-14T01:31:12;5.78;;;3.45;;
36191;SDS011;22233;42.708;23.360;2023-03-14T01:33:38;7.22;;;3.95;;
36191;SDS011;22233;42.708;23.360;2023-03-14T01:36:04;6.88;;;3.85;;
36191;SDS011;22233;42.708;23.360;2023-03-14T01:38:31;6.33;;;4.00;;
36191;SDS011;22233;42.708;23.360;2023-03-14T01:40:58;6.70;;;3.92;;
36191;SDS011;22233;42.708;23.360;2023-03-14T01:43:23;8.45;;;3.92;;
36191;SDS011;22233;42.708;23.360;2023-03-14T01:51:30;5.95;;;3.70;;
36191;SDS011;22233;42.708;23.360;2023-03-14T01:54:02;6.55;;;3.90;;
36191;SDS011;22233;42.708;23.360;2023-03-14T01:56:31;6.03;;;3.22;;
36191;SDS011;22233;42.708;23.360;2023-03-14T01:58:57;6.28;;;3.85;;
36191;SDS011;22233;42.708;23.360;2023-03-14T02:01:25;5.80;;;3.97;;
36191;SDS011;22233;42.708;23.360;2023-03-14T02:03:55;7.95;;;4.22;;
36191;SDS011;22233;42.708;23.360;2023-03-14T02:06:24;7.43;;;4.47;;
36191;SDS011;22233;42.708;23.360;2023-03-14T02:08:54;8.00;;;4.07;;
36191;SDS011;22233;42.708;23.360;2023-03-14T02:11:20;8.07;;;4.65;;
36191;SDS011;22233;42.708;23.360;2023-03-14T02:13:46;7.97;;;4.40;;
36191;SDS011;22233;42.708;23.360;2023-03-14T02:16:13;9.02;;;4.78;;
36191;SDS011;22233;42.708;23.360;2023-03-14T02:18:39;8.23;;;4.95;;
36191;SDS011;22233;42.708;23.360;2023-03-14T02:21:16;7.07;;;4.35;;
36191;SDS011;22233;42.708;23.360;2023-03-14T02:26:34;7.88;;;5.20;;
36191;SDS011;22233;42.708;23.360;2023-03-14T02:29:05;9.90;;;5.20;;
36191;SDS011;22233;42.708;23.360;2023-03-14T02:31:31;7.95;;;4.75;;
36191;SDS011;22233;42.708;23.360;2023-03-14T02:33:57;6.75;;;5.20;;
36191;SDS011;22233;42.708;23.360;2023-03-14T02:36:24;12.30;;;6.15;;
36191;SDS011;22233;42.708;23.360;2023-03-14T02:38:55;11.02;;;6.30;;
36191;SDS011;22233;42.708;23.360;2023-03-14T02:41:44;11.02;;;6.05;;
36191;SDS011;22233;42.708;23.360;2023-03-14T02:44:11;17.90;;;6.68;;
36191;SDS011;22233;42.708;23.360;2023-03-14T02:46:36;15.85;;;8.30;;
36191;SDS011;22233;42.708;23.360;2023-03-14T02:49:03;17.88;;;9.43;;
36191;SDS011;22233;42.708;23.360;2023-03-14T02:51:33;17.52;;;9.57;;
36191;SDS011;22233;42.708;23.360;2023-03-14T02:53:59;14.67;;;8.27;;
36191;SDS011;22233;42.708;23.360;2023-03-14T02:56:25;16.52;;;9.20;;
36191;SDS011;22233;42.708;23.360;2023-03-14T02:58:50;15.73;;;9.25;;
36191;SDS011;22233;42.708;23.360;2023-03-14T03:01:16;15.45;;;8.50;;
36191;SDS011;22233;42.708;23.360;2023-03-14T03:03:41;16.40;;;9.18;;
36191;SDS011;22233;42.708;23.360;2023-03-14T03:06:07;17.60;;;9.70;;
36191;SDS011;22233;42.708;23.360;2023-03-14T03:08:32;16.23;;;10.02;;
36191;SDS011;22233;42.708;23.360;2023-03-14T03:10:58;13.50;;;9.52;;
36191;SDS011;22233;42.708;23.360;2023-03-14T03:13:24;13.98;;;8.85;;
36191;SDS011;22233;42.708;23.360;2023-03-14T03:15:49;15.40;;;9.13;;
36191;SDS011;22233;42.708;23.360;2023-03-14T03:18:15;21.85;;;9.15;;
36191;SDS011;22233;42.708;23.360;2023-03-14T03:20:41;16.58;;;9.13;;
36191;SDS011;22233;42.708;23.360;2023-03-14T03:23:06;18.50;;;9.98;;
36191;SDS011;22233;42.708;23.360;2023-03-14T03:25:32;18.80;;;10.43;;
36191;SDS011;22233;42.708;23.360;2023-03-14T03:27:58;18.27;;;10.07;;
36191;SDS011;22233;42.708;23.360;2023-03-14T03:30:24;16.00;;;9.73;;
36191;SDS011;22233;42.708;23.360;2023-03-14T03:32:49;19.85;;;9.90;;
36191;SDS011;22233;42.708;23.360;2023-03-14T03:35:15;19.85;;;10.70;;
36191;SDS011;22233;42.708;23.360;2023-03-14T03:37:40;20.75;;;11.30;;
36191;SDS011;22233;42.708;23.360;2023-03-14T03:40:06;20.98;;;10.15;;
36191;SDS011;22233;42.708;23.360;2023-03-14T03:42:33;20.67;;;10.25;;
36191;SDS011;22233;42.708;23.360;2023-03-14T03:44:59;18.67;;;10.70;;
36191;SDS011;22233;42.708;23.360;2023-03-14T03:47:25;21.38;;;11.18;;
36191;SDS011;22233;42.708;23.360;2023-03-14T03:49:50;20.25;;;10.77;;
36191;SDS011;22233;42.708;23.360;2023-03-14T03:52:16;19.73;;;12.23;;
36191;SDS011;22233;42.708;23.360;2023-03-14T03:54:41;20.67;;;12.38;;
36191;SDS011;22233;42.708;23.360;2023-03-14T03:57:07;20.60;;;11.35;;
36191;SDS011;22233;42.708;23.360;2023-03-14T03:59:32;22.35;;;11.98;;
36191;SDS011;22233;42.708;23.360;2023-03-14T04:01:59;21.42;;;12.45;;
36191;SDS011;22233;42.708;23.360;2023-03-14T04:04:24;19.67;;;11.85;;
36191;SDS011;22233;42.708;23.360;2023-03-14T04:06:50;24.23;;;11.98;;
36191;SDS011;22233;42.708;23.360;2023-03-14T04:09:15;22.30;;;12.40;;
36191;SDS011;22233;42.708;23.360;2023-03-14T04:11:40;20.08;;;11.80;;
36191;SDS011;22233;42.708;23.360;2023-03-14T04:14:06;21.17;;;12.15;;
36191;SDS011;22233;42.708;23.360;2023-03-14T04:16:32;19.67;;;11.38;;
36191;SDS011;22233;42.708;23.360;2023-03-14T04:18:58;22.27;;;12.52;;
36191;SDS011;22233;42.708;23.360;2023-03-14T04:21:23;23.58;;;11.70;;
36191;SDS011;22233;42.708;23.360;2023-03-14T04:23:49;25.27;;;12.68;;
36191;SDS011;22233;42.708;23.360;2023-03-14T04:26:15;20.50;;;11.50;;
36191;SDS011;22233;42.708;23.360;2023-03-14T04:28:40;25.75;;;12.57;;
36191;SDS011;22233;42.708;23.360;2023-03-14T04:31:07;19.98;;;11.43;;
36191;SDS011;22233;42.708;23.360;2023-03-14T04:33:33;24.70;;;13.13;;
36191;SDS011;22233;42.708;23.360;2023-03-14T04:35:59;24.52;;;13.18;;
36191;SDS011;22233;42.708;23.360;2023-03-14T04:38:24;22.52;;;12.90;;
36191;SDS011;22233;42.708;23.360;2023-03-14T04:40:49;23.05;;;12.75;;
36191;SDS011;22233;42.708;23.360;2023-03-14T04:43:15;25.20;;;12.55;;
36191;SDS011;22233;42.708;23.360;2023-03-14T04:45:41;20.58;;;12.73;;
36191;SDS011;22233;42.708;23.360;2023-03-14T04:48:07;22.90;;;13.02;;
36191;SDS011;22233;42.708;23.360;2023-03-14T04:50:33;27.50;;;14.23;;
36191;SDS011;22233;42.708;23.360;2023-03-14T04:52:58;22.58;;;12.98;;
36191;SDS011;22233;42.708;23.360;2023-03-14T04:55:23;21.50;;;12.48;;
36191;SDS011;22233;42.708;23.360;2023-03-14T04:57:49;23.88;;;13.68;;
36191;SDS011;22233;42.708;23.360;2023-03-14T05:00:14;29.80;;;14.25;;
36191;SDS011;22233;42.708;23.360;2023-03-14T05:02:43;24.98;;;12.98;;
36191;SDS011;22233;42.708;23.360;2023-03-14T05:05:08;24.67;;;12.25;;
36191;SDS011;22233;42.708;23.360;2023-03-14T05:07:34;20.20;;;11.82;;
36191;SDS011;22233;42.708;23.360;2023-03-14T05:09:59;23.85;;;12.65;;
36191;SDS011;22233;42.708;23.360;2023-03-14T05:12:25;18.52;;;12.60;;
36191;SDS011;22233;42.708;23.360;2023-03-14T05:14:50;23.75;;;11.65;;
36191;SDS011;22233;42.708;23.360;2023-03-14T05:17:15;17.77;;;10.68;;
36191;SDS011;22233;42.708;23.360;2023-03-14T05:19:41;14.93;;;9.07;;
36191;SDS011;22233;42.708;23.360;2023-03-14T05:22:07;16.25;;;9.82;;
36191;SDS011;22233;42.708;23.360;2023-03-14T05:24:32;13.23;;;9.20;;
36191;SDS011;22233;42.708;23.360;2023-03-14T05:26:58;14.90;;;9.35;;
36191;SDS011;22233;42.708;23.360;2023-03-14T05:29:23;13.30;;;8.38;;
36191;SDS011;22233;42.708;23.360;2023-03-14T05:31:49;15.25;;;8.10;;
36191;SDS011;22233;42.708;23.360;2023-03-14T05:34:15;17.80;;;9.07;;
36191;SDS011;22233;42.708;23.360;2023-03-14T05:36:40;14.88;;;9.02;;
36191;SDS011;22233;42.708;23.360;2023-03-14T05:39:06;15.30;;;8.35;;
36191;SDS011;22233;42.708;23.360;2023-03-14T05:41:31;14.27;;;8.07;;
36191;SDS011;22233;42.708;23.360;2023-03-14T05:43:56;11.88;;;7.95;;
36191;SDS011;22233;42.708;23.360;2023-03-14T05:46:22;12.98;;;7.95;;
36191;SDS011;22233;42.708;23.360;2023-03-14T05:48:47;13.48;;;8.20;;
36191;SDS011;22233;42.708;23.360;2023-03-14T05:51:12;13.35;;;8.48;;
36191;SDS011;22233;42.708;23.360;2023-03-14T05:53:38;16.88;;;9.18;;
36191;SDS011;22233;42.708;23.360;2023-03-14T05:56:03;15.38;;;8.82;;
36191;SDS011;22233;42.708;23.360;2023-03-14T05:58:29;15.30;;;8.98;;
36191;SDS011;22233;42.708;23.360;2023-03-14T06:00:54;16.80;;;10.07;;
36191;SDS011;22233;42.708;23.360;2023-03-14T06:03:20;16.90;;;9.43;;
36191;SDS011;22233;42.708;23.360;2023-03-14T06:05:45;17.23;;;9.35;;
36191;SDS011;22233;42.708;23.360;2023-03-14T06:08:10;14.45;;;8.95;;
36191;SDS011;22233;42.708;23.360;2023-03-14T06:10:36;17.02;;;8.85;;
36191;SDS011;22233;42.708;23.360;2023-03-14T06:13:02;15.30;;;8.73;;
36191;SDS011;22233;42.708;23.360;2023-03-14T06:15:27;18.08;;;9.13;;
36191;SDS011;22233;42.708;23.360;2023-03-14T06:17:53;14.50;;;8.63;;
36191;SDS011;22233;42.708;23.360;2023-03-14T06:20:20;17.35;;;9.95;;
36191;SDS011;22233;42.708;23.360;2023-03-14T06:22:45;15.85;;;9.57;;
36191;SDS011;22233;42.708;23.360;2023-03-14T06:25:11;15.38;;;9.45;;
36191;SDS011;22233;42.708;23.360;2023-03-14T06:27:36;17.75;;;9.77;;
36191;SDS011;22233;42.708;23.360;2023-03-14T06:30:02;21.23;;;10.95;;
36191;SDS011;22233;42.708;23.360;2023-03-14T06:32:27;16.92;;;9.82;;
36191;SDS011;22233;42.708;23.360;2023-03-14T06:34:53;17.98;;;9.93;;
36191;SDS011;22233;42.708;23.360;2023-03-14T06:37:18;16.15;;;10.25;;
36191;SDS011;22233;42.708;23.360;2023-03-14T06:39:44;17.48;;;10.82;;
36191;SDS011;22233;42.708;23.360;2023-03-14T06:42:09;14.77;;;9.60;;
36191;SDS011;22233;42.708;23.360;2023-03-14T06:44:35;19.08;;;11.40;;
36191;SDS011;22233;42.708;23.360;2023-03-14T06:47:00;18.40;;;10.70;;
36191;SDS011;22233;42.708;23.360;2023-03-14T06:49:26;18.08;;;10.80;;
36191;SDS011;22233;42.708;23.360;2023-03-14T06:51:51;16.92;;;10.75;;
36191;SDS011;22233;42.708;23.360;2023-03-14T06:54:17;18.73;;;11.40;;
36191;SDS011;22233;42.708;23.360;2023-03-14T06:56:42;19.77;;;11.65;;
36191;SDS011;22233;42.708;23.360;2023-03-14T06:59:08;16.63;;;11.35;;
36191;SDS011;22233;42.708;23.360;2023-03-14T07:01:34;19.15;;;11.73;;
36191;SDS011;22233;42.708;23.360;2023-03-14T07:04:00;16.80;;;11.15;;
36191;SDS011;22233;42.708;23.360;2023-03-14T07:06:26;16.20;;;11.48;;
36191;SDS011;22233;42.708;23.360;2023-03-14T07:08:54;20.63;;;10.90;;
36191;SDS011;22233;42.708;23.360;2023-03-14T07:11:20;19.25;;;11.20;;
36191;SDS011;22233;42.708;23.360;2023-03-14T07:13:45;21.77;;;11.77;;
36191;SDS011;22233;42.708;23.360;2023-03-14T07:16:11;23.30;;;13.35;;
36191;SDS011;22233;42.708;23.360;2023-03-14T07:18:36;20.25;;;11.25;;
36191;SDS011;22233;42.708;23.360;2023-03-14T07:21:02;17.73;;;10.10;;
36191;SDS011;22233;42.708;23.360;2023-03-14T07:23:28;12.68;;;8.75;;
36191;SDS011;22233;42.708;23.360;2023-03-14T07:25:54;13.27;;;8.50;;
36191;SDS011;22233;42.708;23.360;2023-03-14T07:28:20;13.43;;;9.00;;
36191;SDS011;22233;42.708;23.360;2023-03-14T07:30:46;13.75;;;8.15;;
36191;SDS011;22233;42.708;23.360;2023-03-14T07:33:13;10.93;;;6.38;;
36191;SDS011;22233;42.708;23.360;2023-03-14T07:35:39;7.82;;;4.50;;
36191;SDS011;22233;42.708;23.360;2023-03-14T07:38:04;6.75;;;5.00;;
36191;SDS011;22233;42.708;23.360;2023-03-14T07:40:29;6.93;;;4.72;;
36191;SDS011;22233;42.708;23.360;2023-03-14T07:42:55;7.65;;;4.57;;
36191;SDS011;22233;42.708;23.360;2023-03-14T07:45:20;7.57;;;5.05;;
36191;SDS011;22233;42.708;23.360;2023-03-14T07:47:46;7.53;;;4.47;;
36191;SDS011;22233;42.708;23.360;2023-03-14T07:50:11;9.65;;;5.47;;
36191;SDS011;22233;42.708;23.360;2023-03-14T07:52:37;6.93;;;5.53;;
36191;SDS011;22233;42.708;23.360;2023-03-14T07:55:02;6.60;;;4.55;;
36191;SDS011;22233;42.708;23.360;2023-03-14T07:57:28;7.75;;;4.28;;
36191;SDS011;22233;42.708;23.360;2023-03-14T07:59:53;6.75;;;4.15;;
36191;SDS011;22233;42.708;23.360;2023-03-14T08:02:18;7.40;;;4.53;;
36191;SDS011;22233;42.708;23.360;2023-03-14T08:04:47;8.27;;;4.38;;
36191;SDS011;22233;42.708;23.360;2023-03-14T08:07:12;6.75;;;4.60;;
36191;SDS011;22233;42.708;23.360;2023-03-14T08:09:38;10.15;;;5.05;;
36191;SDS011;22233;42.708;23.360;2023-03-14T08:12:03;6.32;;;4.95;;
36191;SDS011;22233;42.708;23.360;2023-03-14T08:14:29;11.23;;;6.25;;
36191;SDS011;22233;42.708;23.360;2023-03-14T08:16:55;5.57;;;4.47;;
36191;SDS011;22233;42.708;23.360;2023-03-14T08:19:21;7.53;;;4.60;;
36191;SDS011;22233;42.708;23.360;2023-03-14T08:21:46;6.63;;;4.70;;
36191;SDS011;22233;42.708;23.360;2023-03-14T08:24:12;6.30;;;4.80;;
36191;SDS011;22233;42.708;23.360;2023-03-14T08:26:37;7.18;;;4.95;;
36191;SDS011;22233;42.708;23.360;2023-03-14T08:29:03;9.02;;;4.72;;
36191;SDS011;22233;42.708;23.360;2023-03-14T08:31:29;6.30;;;4.43;;
36191;SDS011;22233;42.708;23.360;2023-03-14T08:33:57;8.57;;;4.50;;
36191;SDS011;22233;42.708;23.360;2023-03-14T08:36:24;5.75;;;4.30;;
36191;SDS011;22233;42.708;23.360;2023-03-14T08:38:50;6.68;;;4.05;;
36191;SDS011;22233;42.708;23.360;2023-03-14T08:41:15;5.85;;;4.10;;
36191;SDS011;22233;42.708;23.360;2023-03-14T08:43:41;5.40;;;3.90;;
36191;SDS011;22233;42.708;23.360;2023-03-14T08:46:06;4.85;;;3.65;;
36191;SDS011;22233;42.708;23.360;2023-03-14T08:48:31;4.72;;;3.63;;
36191;SDS011;22233;42.708;23.360;2023-03-14T08:51:03;5.05;;;3.45;;
36191;SDS011;22233;42.708;23.360;2023-03-14T08:53:33;5.85;;;3.78;;
36191;SDS011;22233;42.708;23.360;2023-03-14T08:55:59;6.80;;;4.25;;
36191;SDS011;22233;42.708;23.360;2023-03-14T08:58:24;5.15;;;3.63;;
36191;SDS011;22233;42.708;23.360;2023-03-14T09:00:50;5.82;;;3.85;;
36191;SDS011;22233;42.708;23.360;2023-03-14T09:03:15;6.22;;;3.90;;
36191;SDS011;22233;42.708;23.360;2023-03-14T09:05:40;9.48;;;3.95;;
36191;SDS011;22233;42.708;23.360;2023-03-14T09:08:06;5.07;;;3.50;;
36191;SDS011;22233;42.708;23.360;2023-03-14T09:10:31;6.80;;;3.75;;
36191;SDS011;22233;42.708;23.360;2023-03-14T09:12:57;4.78;;;3.60;;
36191;SDS011;22233;42.708;23.360;2023-03-14T09:15:23;4.50;;;3.20;;
36191;SDS011;22233;42.708;23.360;2023-03-14T09:17:49;5.78;;;3.60;;
36191;SDS011;22233;42.708;23.360;2023-03-14T09:20:14;5.45;;;3.30;;
36191;SDS011;22233;42.708;23.360;2023-03-14T09:22:40;9.27;;;4.22;;
36191;SDS011;22233;42.708;23.360;2023-03-14T09:25:05;4.38;;;3.28;;
36191;SDS011;22233;42.708;23.360;2023-03-14T09:27:31;8.73;;;3.92;;
36191;SDS011;22233;42.708;23.360;2023-03-14T09:29:57;6.15;;;3.03;;
36191;SDS011;22233;42.708;23.360;2023-03-14T09:32:22;6.22;;;3.97;;
36191;SDS011;22233;42.708;23.360;2023-03-14T09:34:47;5.65;;;3.70;;
36191;SDS011;22233;42.708;23.360;2023-03-14T09:37:13;11.48;;;4.60;;
36191;SDS011;22233;42.708;23.360;2023-03-14T09:39:41;4.28;;;3.88;;
36191;SDS011;22233;42.708;23.360;2023-03-14T09:42:07;7.00;;;4.18;;
36191;SDS011;22233;42.708;23.360;2023-03-14T09:44:39;4.97;;;3.45;;
36191;SDS011;22233;42.708;23.360;2023-03-14T09:47:33;6.78;;;4.60;;
36191;SDS011;22233;42.708;23.360;2023-03-14T09:50:00;5.38;;;3.45;;
36191;SDS011;22233;42.708;23.360;2023-03-14T09:52:35;7.15;;;3.50;;
36191;SDS011;22233;42.708;23.360;2023-03-14T09:55:11;7.82;;;4.25;;
36191;SDS011;22233;42.708;23.360;2023-03-14T09:57:40;3.97;;;3.15;;
36191;SDS011;22233;42.708;23.360;2023-03-14T10:00:12;6.90;;;2.90;;
36191;SDS011;22233;42.708;23.360;2023-03-14T10:02:47;3.95;;;2.88;;
36191;SDS011;22233;42.708;23.360;2023-03-14T10:05:18;5.03;;;3.50;;
36191;SDS011;22233;42.708;23.360;2023-03-14T10:07:46;7.30;;;3.47;;
36191;SDS011;22233;42.708;23.360;2023-03-14T10:10:22;4.90;;;3.75;;
36191;SDS011;22233;42.708;23.360;2023-03-14T10:15:59;7.32;;;3.72;;
36191;SDS011;22233;42.708;23.360;2023-03-14T10:18:28;6.82;;;3.83;;
36191;SDS011;22233;42.708;23.360;2023-03-14T10:21:02;7.25;;;3.70;;
36191;SDS011;22233;42.708;23.360;2023-03-14T10:23:33;7.40;;;3.20;;
36191;SDS011;22233;42.708;23.360;2023-03-14T10:26:07;6.18;;;3.60;;
36191;SDS011;22233;42.708;23.360;2023-03-14T10:31:03;6.13;;;2.95;;
36191;SDS011;22233;42.708;23.360;2023-03-14T10:33:33;5.68;;;3.42;;
36191;SDS011;22233;42.708;23.360;2023-03-14T10:36:02;6.10;;;3.72;;
36191;SDS011;22233;42.708;23.360;2023-03-14T10:38:33;5.30;;;2.92;;
36191;SDS011;22233;42.708;23.360;2023-03-14T10:41:00;4.45;;;3.03;;
36191;SDS011;22233;42.708;23.360;2023-03-14T10:46:08;3.05;;;2.75;;
36191;SDS011;22233;42.708;23.360;2023-03-14T10:48:38;3.60;;;2.85;;
36191;SDS011;22233;42.708;23.360;2023-03-14T10:51:09;4.57;;;2.75;;
36191;SDS011;22233;42.708;23.360;2023-03-14T10:53:50;5.00;;;2.40;;
36191;SDS011;22233;42.708;23.360;2023-03-14T10:56:22;3.95;;;2.38;;
36191;SDS011;22233;42.708;23.360;2023-03-14T10:58:50;4.32;;;2.10;;
36191;SDS011;22233;42.708;23.360;2023-03-14T11:03:45;3.17;;;2.40;;
36191;SDS011;22233;42.708;23.360;2023-03-14T11:06:28;3.60;;;2.33;;
36191;SDS011;22233;42.708;23.360;2023-03-14T11:09:02;5.88;;;2.75;;
36191;SDS011;22233;42.708;23.360;2023-03-14T11:11:39;5.88;;;4.18;;
36191;SDS011;22233;42.708;23.360;2023-03-14T11:14:14;3.28;;;2.50;;
36191;SDS011;22233;42.708;23.360;2023-03-14T11:16:56;4.40;;;2.10;;
36191;SDS011;22233;42.708;23.360;2023-03-14T11:19:49;4.25;;;2.58;;
36191;SDS011;22233;42.708;23.360;2023-03-14T11:28:00;3.63;;;2.63;;
36191;SDS011;22233;42.708;23.360;2023-03-14T11:35:58;4.53;;;2.40;;
36191;SDS011;22233;42.708;23.360;2023-03-14T11:41:27;5.85;;;2.35;;
36191;SDS011;22233;42.708;23.360;2023-03-14T11:44:19;3.58;;;2.50;;
36191;SDS011;22233;42.708;23.360;2023-03-14T11:49:50;5.45;;;2.75;;
36191;SDS011;22233;42.708;23.360;2023-03-14T11:53:08;2.60;;;1.58;;
36191;SDS011;22233;42.708;23.360;2023-03-14T11:56:02;3.25;;;2.53;;
36191;SDS011;22233;42.708;23.360;2023-03-14T11:58:38;2.05;;;1.85;;
36191;SDS011;22233;42.708;23.360;2023-03-14T12:01:12;2.95;;;1.88;;
36191;SDS011;22233;42.708;23.360;2023-03-14T12:03:43;5.65;;;1.70;;
36191;SDS011;22233;42.708;23.360;2023-03-14T12:09:21;2.35;;;1.50;;
36191;SDS011;22233;42.708;23.360;2023-03-14T12:11:51;3.73;;;1.77;;
36191;SDS011;22233;42.708;23.360;2023-03-14T12:14:26;4.60;;;1.40;;
36191;SDS011;22233;42.708;23.360;2023-03-14T12:16:55;2.67;;;1.90;;
36191;SDS011;22233;42.708;23.360;2023-03-14T12:21:55;3.45;;;1.10;;
36191;SDS011;22233;42.708;23.360;2023-03-14T12:24:23;2.22;;;1.52;;
36191;SDS011;22233;42.708;23.360;2023-03-14T12:26:54;2.15;;;1.30;;
36191;SDS011;22233;42.708;23.360;2023-03-14T12:29:21;2.35;;;1.35;;
36191;SDS011;22233;42.708;23.360;2023-03-14T12:34:26;1.77;;;1.20;;
36191;SDS011;22233;42.708;23.360;2023-03-14T12:42:01;1.90;;;1.40;;
36191;SDS011;22233;42.708;23.360;2023-03-14T12:46:56;2.38;;;1.38;;
36191;SDS011;22233;42.708;23.360;2023-03-14T12:49:23;2.40;;;1.52;;
36191;SDS011;22233;42.708;23.360;2023-03-14T12:52:01;2.88;;;1.30;;
36191;SDS011;22233;42.708;23.360;2023-03-14T12:54:34;1.50;;;1.27;;
36191;SDS011;22233;42.708;23.360;2023-03-14T12:57:32;2.55;;;1.58;;
36191;SDS011;22233;42.708;23.360;2023-03-14T13:00:00;1.58;;;1.00;;
36191;SDS011;22233;42.708;23.360;2023-03-14T13:02:37;1.87;;;1.30;;
36191;SDS011;22233;42.708;23.360;2023-03-14T13:05:12;2.53;;;1.17;;
36191;SDS011;22233;42.708;23.360;2023-03-14T13:13:16;1.58;;;1.05;;
36191;SDS011;22233;42.708;23.360;2023-03-14T13:15:31;1.50;;;1.23;;
36191;SDS011;22233;42.708;23.360;2023-03-14T13:18:00;2.75;;;1.40;;
36191;SDS011;22233;42.708;23.360;2023-03-14T13:20:29;2.22;;;1.20;;
36191;SDS011;22233;42.708;23.360;2023-03-14T13:22:58;2.22;;;1.23;;
36191;SDS011;22233;42.708;23.360;2023-03-14T13:25:24;1.90;;;1.35;;
36191;SDS011;22233;42.708;23.360;2023-03-14T13:27:55;2.13;;;1.30;;
36191;SDS011;22233;42.708;23.360;2023-03-14T13:32:48;2.30;;;1.08;;
36191;SDS011;22233;42.708;23.360;2023-03-14T13:35:15;1.35;;;1.02;;
36191;SDS011;22233;42.708;23.360;2023-03-14T13:37:42;3.38;;;1.30;;
36191;SDS011;22233;42.708;23.360;2023-03-14T13:40:17;1.67;;;1.05;;
36191;SDS011;22233;42.708;23.360;2023-03-14T13:42:59;1.75;;;1.08;;
36191;SDS011;22233;42.708;23.360;2023-03-14T13:45:46;1.50;;;0.95;;
36191;SDS011;22233;42.708;23.360;2023-03-14T13:48:17;3.22;;;1.60;;
36191;SDS011;22233;42.708;23.360;2023-03-14T13:50:44;1.92;;;1.17;;
36191;SDS011;22233;42.708;23.360;2023-03-14T13:53:18;2.45;;;1.42;;
36191;SDS011;22233;42.708;23.360;2023-03-14T13:55:43;2.10;;;1.30;;
36191;SDS011;22233;42.708;23.360;2023-03-14T13:58:11;3.08;;;1.20;;
36191;SDS011;22233;42.708;23.360;2023-03-14T14:00:52;2.53;;;1.58;;
36191;SDS011;22233;42.708;23.360;2023-03-14T14:03:21;3.15;;;1.60;;
36191;SDS011;22233;42.708;23.360;2023-03-14T14:05:47;1.70;;;1.10;;
36191;SDS011;22233;42.708;23.360;2023-03-14T14:08:13;2.80;;;1.50;;
36191;SDS011;22233;42.708;23.360;2023-03-14T14:10:38;2.60;;;1.67;;
36191;SDS011;22233;42.708;23.360;2023-03-14T14:13:05;2.80;;;1.77;;
36191;SDS011;22233;42.708;23.360;2023-03-14T14:15:40;2.53;;;1.38;;
36191;SDS011;22233;42.708;23.360;2023-03-14T14:18:09;2.38;;;1.17;;
36191;SDS011;22233;42.708;23.360;2023-03-14T14:20:38;1.85;;;1.00;;
36191;SDS011;22233;42.708;23.360;2023-03-14T14:23:07;2.03;;;1.45;;
36191;SDS011;22233;42.708;23.360;2023-03-14T14:25:36;2.40;;;1.33;;
36191;SDS011;22233;42.708;23.360;2023-03-14T14:33:43;2.13;;;1.33;;
36191;SDS011;22233;42.708;23.360;2023-03-14T14:36:19;4.82;;;1.20;;
36191;SDS011;22233;42.708;23.360;2023-03-14T14:38:50;1.90;;;1.00;;
36191;SDS011;22233;42.708;23.360;2023-03-14T14:41:17;4.03;;;1.17;;
36191;SDS011;22233;42.708;23.360;2023-03-14T14:43:43;5.18;;;1.63;;
36191;SDS011;22233;42.708;23.360;2023-03-14T14:46:08;1.52;;;1.20;;
36191;SDS011;22233;42.708;23.360;2023-03-14T14:48:37;2.60;;;1.53;;
36191;SDS011;22233;42.708;23.360;2023-03-14T14:51:04;2.28;;;1.23;;
36191;SDS011;22233;42.708;23.360;2023-03-14T14:53:38;1.65;;;1.20;;
36191;SDS011;22233;42.708;23.360;2023-03-14T14:58:55;2.60;;;1.52;;
36191;SDS011;22233;42.708;23.360;2023-03-14T15:01:23;4.32;;;1.98;;
36191;SDS011;22233;42.708;23.360;2023-03-14T15:03:52;5.00;;;1.73;;
36191;SDS011;22233;42.708;23.360;2023-03-14T15:06:18;2.15;;;1.50;;
36191;SDS011;22233;42.708;23.360;2023-03-14T15:08:45;1.65;;;1.10;;
36191;SDS011;22233;42.708;23.360;2023-03-14T15:11:19;2.00;;;1.35;;
36191;SDS011;22233;42.708;23.360;2023-03-14T15:13:47;2.17;;;1.23;;
36191;SDS011;22233;42.708;23.360;2023-03-14T15:16:15;2.13;;;1.45;;
36191;SDS011;22233;42.708;23.360;2023-03-14T15:18:43;4.00;;;1.50;;
36191;SDS011;22233;42.708;23.360;2023-03-14T15:21:11;5.40;;;1.90;;
36191;SDS011;22233;42.708;23.360;2023-03-14T15:23:36;1.73;;;1.35;;
36191;SDS011;22233;42.708;23.360;2023-03-14T15:26:02;2.50;;;1.30;;
36191;SDS011;22233;42.708;23.360;2023-03-14T15:28:36;3.53;;;2.20;;
36191;SDS011;22233;42.708;23.360;2023-03-14T15:31:02;2.50;;;1.67;;
36191;SDS011;22233;42.708;23.360;2023-03-14T15:33:27;4.13;;;1.70;;
36191;SDS011;22233;42.708;23.360;2023-03-14T15:35:53;2.47;;;1.70;;
36191;SDS011;22233;42.708;23.360;2023-03-14T15:38:20;3.88;;;1.70;;
36191;SDS011;22233;42.708;23.360;2023-03-14T15:40:48;3.40;;;2.10;;
36191;SDS011;22233;42.708;23.360;2023-03-14T15:43:14;4.88;;;2.80;;